sensor_id;sensor_type;location;lat;lon;timestamp;temperature;humidity
25188;DHT22;13141;50.414;8.050;2022-09-21T00:00:49;10.20;99.90
25188;DHT22;13141;50.414;8.050;2022-09-21T00:03:15;10.10;99.90
25188;DHT22;13141;50.414;8.050;2022-09-21T00:05:41;10.10;99.90
25188;DHT22;13141;50.414;8.050;2022-09-21T00:08:10;10.10;99.90
25188;DHT22;13141;50.414;8.050;2022-09-21T00:10:36;10.10;99.90
25188;DHT22;13141;50.414;8.050;2022-09-21T00:13:02;10.10;99.90
25188;DHT22;13141;50.414;8.050;2022-09-21T00:15:29;10.10;99.90
25188;DHT22;13141;50.414;8.050;2022-09-21T00:17:56;10.10;99.90
25188;DHT22;13141;50.414;8.050;2022-09-21T00:20:23;10.10;99.90
25188;DHT22;13141;50.414;8.050;2022-09-21T00:22:50;10.20;99.90
25188;DHT22;13141;50.414;8.050;2022-09-21T00:25:17;10.20;99.90
25188;DHT22;13141;50.414;8.050;2022-09-21T00:27:43;10.20;99.90
25188;DHT22;13141;50.414;8.050;2022-09-21T00:30:09;10.10;99.90
25188;DHT22;13141;50.414;8.050;2022-09-21T00:32:37;10.00;99.90
25188;DHT22;13141;50.414;8.050;2022-09-21T00:35:04;10.10;99.90
25188;DHT22;13141;50.414;8.050;2022-09-21T00:37:31;10.10;99.90
25188;DHT22;13141;50.414;8.050;2022-09-21T00:39:56;10.20;99.90
25188;DHT22;13141;50.414;8.050;2022-09-21T00:42:28;10.20;99.90
25188;DHT22;13141;50.414;8.050;2022-09-21T00:44:54;10.20;99.90
25188;DHT22;13141;50.414;8.050;2022-09-21T00:47:38;10.20;99.90
25188;DHT22;13141;50.414;8.050;2022-09-21T00:50:15;10.20;99.90
25188;DHT22;13141;50.414;8.050;2022-09-21T00:52:45;10.20;99.90
25188;DHT22;13141;50.414;8.050;2022-09-21T00:55:28;10.10;99.90
25188;DHT22;13141;50.414;8.050;2022-09-21T00:58:00;10.00;99.90
25188;DHT22;13141;50.414;8.050;2022-09-21T01:00:26;10.00;99.90
25188;DHT22;13141;50.414;8.050;2022-09-21T01:02:52;10.00;99.90
25188;DHT22;13141;50.414;8.050;2022-09-21T01:05:25;10.00;99.90
25188;DHT22;13141;50.414;8.050;2022-09-21T01:07:51;10.00;99.90
25188;DHT22;13141;50.414;8.050;2022-09-21T01:10:17;10.00;99.90
25188;DHT22;13141;50.414;8.050;2022-09-21T01:15:39;10.10;99.90
25188;DHT22;13141;50.414;8.050;2022-09-21T01:18:21;10.10;99.90
25188;DHT22;13141;50.414;8.050;2022-09-21T01:21:19;10.10;99.90
25188;DHT22;13141;50.414;8.050;2022-09-21T01:34:41;10.00;99.90
25188;DHT22;13141;50.414;8.050;2022-09-21T01:37:19;10.00;99.90
25188;DHT22;13141;50.414;8.050;2022-09-21T01:39:49;10.00;99.90
25188;DHT22;13141;50.414;8.050;2022-09-21T01:42:19;10.00;99.90
25188;DHT22;13141;50.414;8.050;2022-09-21T01:44:46;10.00;99.90
25188;DHT22;13141;50.414;8.050;2022-09-21T01:47:12;9.90;99.90
25188;DHT22;13141;50.414;8.050;2022-09-21T01:49:42;10.00;99.90
25188;DHT22;13141;50.414;8.050;2022-09-21T01:52:25;10.00;99.90
25188;DHT22;13141;50.414;8.050;2022-09-21T01:54:58;10.00;99.90
25188;DHT22;13141;50.414;8.050;2022-09-21T01:57:42;9.90;99.90
25188;DHT22;13141;50.414;8.050;2022-09-21T02:00:11;9.80;99.90
25188;DHT22;13141;50.414;8.050;2022-09-21T02:03:11;9.80;99.90
25188;DHT22;13141;50.414;8.050;2022-09-21T02:05:34;9.70;99.90
25188;DHT22;13141;50.414;8.050;2022-09-21T02:08:01;9.70;99.90
25188;DHT22;13141;50.414;8.050;2022-09-21T02:10:33;9.80;99.90
25188;DHT22;13141;50.414;8.050;2022-09-21T02:13:03;9.80;99.90
25188;DHT22;13141;50.414;8.050;2022-09-21T02:16:25;9.80;99.90
25188;DHT22;13141;50.414;8.050;2022-09-21T02:21:29;9.70;99.90
25188;DHT22;13141;50.414;8.050;2022-09-21T02:24:29;9.70;99.90
25188;DHT22;13141;50.414;8.050;2022-09-21T02:27:02;9.70;99.90
25188;DHT22;13141;50.414;8.050;2022-09-21T02:29:55;9.50;99.90
25188;DHT22;13141;50.414;8.050;2022-09-21T02:32:55;9.50;99.90
25188;DHT22;13141;50.414;8.050;2022-09-21T02:38:24;9.50;99.90
25188;DHT22;13141;50.414;8.050;2022-09-21T02:43:38;9.60;99.90
25188;DHT22;13141;50.414;8.050;2022-09-21T02:46:23;9.50;99.90
25188;DHT22;13141;50.414;8.050;2022-09-21T02:49:05;9.50;99.90
25188;DHT22;13141;50.414;8.050;2022-09-21T02:51:38;9.50;99.90
25188;DHT22;13141;50.414;8.050;2022-09-21T02:54:07;9.60;99.90
25188;DHT22;13141;50.414;8.050;2022-09-21T02:56:36;9.50;99.90
25188;DHT22;13141;50.414;8.050;2022-09-21T02:59:03;9.50;99.90
25188;DHT22;13141;50.414;8.050;2022-09-21T03:01:31;9.50;99.90
25188;DHT22;13141;50.414;8.050;2022-09-21T03:03:57;9.40;99.90
25188;DHT22;13141;50.414;8.050;2022-09-21T03:06:23;9.40;99.90
25188;DHT22;13141;50.414;8.050;2022-09-21T03:08:48;9.30;99.90
25188;DHT22;13141;50.414;8.050;2022-09-21T03:11:18;9.30;99.90
25188;DHT22;13141;50.414;8.050;2022-09-21T03:13:44;9.30;99.90
25188;DHT22;13141;50.414;8.050;2022-09-21T03:16:10;9.30;99.90
25188;DHT22;13141;50.414;8.050;2022-09-21T03:18:36;9.30;99.90
25188;DHT22;13141;50.414;8.050;2022-09-21T03:21:01;9.30;99.90
25188;DHT22;13141;50.414;8.050;2022-09-21T03:23:28;9.40;99.90
25188;DHT22;13141;50.414;8.050;2022-09-21T03:25:53;9.50;99.90
25188;DHT22;13141;50.414;8.050;2022-09-21T03:28:20;9.50;99.90
25188;DHT22;13141;50.414;8.050;2022-09-21T03:30:48;9.50;99.90
25188;DHT22;13141;50.414;8.050;2022-09-21T03:33:14;9.50;99.90
25188;DHT22;13141;50.414;8.050;2022-09-21T03:35:40;9.40;99.90
25188;DHT22;13141;50.414;8.050;2022-09-21T03:38:06;9.30;99.90
25188;DHT22;13141;50.414;8.050;2022-09-21T03:40:32;9.30;99.90
25188;DHT22;13141;50.414;8.050;2022-09-21T03:42:58;9.20;99.90
25188;DHT22;13141;50.414;8.050;2022-09-21T03:45:24;9.30;99.90
25188;DHT22;13141;50.414;8.050;2022-09-21T03:47:54;9.20;99.90
25188;DHT22;13141;50.414;8.050;2022-09-21T03:50:21;9.30;99.90
25188;DHT22;13141;50.414;8.050;2022-09-21T03:52:46;9.20;99.90
25188;DHT22;13141;50.414;8.050;2022-09-21T03:55:13;9.20;99.90
25188;DHT22;13141;50.414;8.050;2022-09-21T03:57:39;9.20;99.90
25188;DHT22;13141;50.414;8.050;2022-09-21T04:00:07;9.30;99.90
25188;DHT22;13141;50.414;8.050;2022-09-21T04:02:37;9.30;99.90
25188;DHT22;13141;50.414;8.050;2022-09-21T04:05:08;9.30;99.90
25188;DHT22;13141;50.414;8.050;2022-09-21T04:07:34;9.40;99.90
25188;DHT22;13141;50.414;8.050;2022-09-21T04:10:00;9.40;99.90
25188;DHT22;13141;50.414;8.050;2022-09-21T04:12:26;9.50;99.90
25188;DHT22;13141;50.414;8.050;2022-09-21T04:14:52;9.50;99.90
25188;DHT22;13141;50.414;8.050;2022-09-21T04:17:17;9.50;99.90
25188;DHT22;13141;50.414;8.050;2022-09-21T04:19:43;9.40;99.90
25188;DHT22;13141;50.414;8.050;2022-09-21T04:22:13;9.40;99.90
25188;DHT22;13141;50.414;8.050;2022-09-21T04:24:39;9.40;99.90
25188;DHT22;13141;50.414;8.050;2022-09-21T04:27:08;9.30;99.90
25188;DHT22;13141;50.414;8.050;2022-09-21T04:29:34;9.30;99.90
25188;DHT22;13141;50.414;8.050;2022-09-21T04:32:00;9.40;99.90
25188;DHT22;13141;50.414;8.050;2022-09-21T04:34:26;9.40;99.90
25188;DHT22;13141;50.414;8.050;2022-09-21T04:36:51;9.50;99.90
25188;DHT22;13141;50.414;8.050;2022-09-21T04:39:19;9.50;99.90
25188;DHT22;13141;50.414;8.050;2022-09-21T04:41:44;9.50;99.90
25188;DHT22;13141;50.414;8.050;2022-09-21T04:44:11;9.60;99.90
25188;DHT22;13141;50.414;8.050;2022-09-21T04:46:37;9.50;99.90
25188;DHT22;13141;50.414;8.050;2022-09-21T04:49:03;9.40;99.90
25188;DHT22;13141;50.414;8.050;2022-09-21T04:51:28;9.50;99.90
25188;DHT22;13141;50.414;8.050;2022-09-21T04:53:54;9.50;99.90
25188;DHT22;13141;50.414;8.050;2022-09-21T04:56:19;9.50;99.90
25188;DHT22;13141;50.414;8.050;2022-09-21T04:58:45;9.50;99.90
25188;DHT22;13141;50.414;8.050;2022-09-21T05:01:10;9.60;99.90
25188;DHT22;13141;50.414;8.050;2022-09-21T05:03:36;9.50;99.90
25188;DHT22;13141;50.414;8.050;2022-09-21T05:06:03;9.60;99.90
25188;DHT22;13141;50.414;8.050;2022-09-21T05:08:28;9.50;99.90
25188;DHT22;13141;50.414;8.050;2022-09-21T05:11:15;9.50;99.90
25188;DHT22;13141;50.414;8.050;2022-09-21T05:13:42;9.50;99.90
25188;DHT22;13141;50.414;8.050;2022-09-21T05:16:08;9.60;99.90
25188;DHT22;13141;50.414;8.050;2022-09-21T05:18:34;9.60;99.90
25188;DHT22;13141;50.414;8.050;2022-09-21T05:21:01;9.60;99.90
25188;DHT22;13141;50.414;8.050;2022-09-21T05:23:28;9.60;99.90
25188;DHT22;13141;50.414;8.050;2022-09-21T05:25:54;9.80;99.90
25188;DHT22;13141;50.414;8.050;2022-09-21T05:28:21;9.60;99.90
25188;DHT22;13141;50.414;8.050;2022-09-21T05:31:20;9.70;99.90
25188;DHT22;13141;50.414;8.050;2022-09-21T05:33:54;9.60;99.90
25188;DHT22;13141;50.414;8.050;2022-09-21T05:39:02;9.50;99.90
25188;DHT22;13141;50.414;8.050;2022-09-21T05:41:28;9.50;99.90
25188;DHT22;13141;50.414;8.050;2022-09-21T05:43:54;9.50;99.90
25188;DHT22;13141;50.414;8.050;2022-09-21T05:46:48;9.70;99.90
25188;DHT22;13141;50.414;8.050;2022-09-21T06:02:56;9.50;99.90
25188;DHT22;13141;50.414;8.050;2022-09-21T06:05:23;9.50;99.90
25188;DHT22;13141;50.414;8.050;2022-09-21T06:07:49;9.50;99.90
25188;DHT22;13141;50.414;8.050;2022-09-21T06:10:15;9.50;99.90
25188;DHT22;13141;50.414;8.050;2022-09-21T06:12:41;9.70;99.90
25188;DHT22;13141;50.414;8.050;2022-09-21T06:15:12;9.50;99.90
25188;DHT22;13141;50.414;8.050;2022-09-21T06:17:38;9.50;99.90
25188;DHT22;13141;50.414;8.050;2022-09-21T06:20:05;9.50;99.90
25188;DHT22;13141;50.414;8.050;2022-09-21T06:22:32;9.50;99.90
25188;DHT22;13141;50.414;8.050;2022-09-21T06:24:57;9.60;99.90
25188;DHT22;13141;50.414;8.050;2022-09-21T06:27:23;9.50;99.90
25188;DHT22;13141;50.414;8.050;2022-09-21T06:29:48;9.50;99.90
25188;DHT22;13141;50.414;8.050;2022-09-21T06:32:14;9.50;99.90
25188;DHT22;13141;50.414;8.050;2022-09-21T06:34:39;9.60;99.90
25188;DHT22;13141;50.414;8.050;2022-09-21T06:37:07;9.60;99.90
25188;DHT22;13141;50.414;8.050;2022-09-21T06:39:33;9.60;99.90
25188;DHT22;13141;50.414;8.050;2022-09-21T06:41:58;9.60;99.90
25188;DHT22;13141;50.414;8.050;2022-09-21T06:44:24;9.60;99.90
25188;DHT22;13141;50.414;8.050;2022-09-21T06:46:50;9.70;99.90
25188;DHT22;13141;50.414;8.050;2022-09-21T06:49:16;10.00;99.90
25188;DHT22;13141;50.414;8.050;2022-09-21T06:51:42;9.70;99.90
25188;DHT22;13141;50.414;8.050;2022-09-21T06:54:08;9.80;99.90
25188;DHT22;13141;50.414;8.050;2022-09-21T06:56:34;9.80;99.90
25188;DHT22;13141;50.414;8.050;2022-09-21T06:59:00;9.80;99.90
25188;DHT22;13141;50.414;8.050;2022-09-21T07:01:25;9.80;99.90
25188;DHT22;13141;50.414;8.050;2022-09-21T07:03:51;10.10;99.90
25188;DHT22;13141;50.414;8.050;2022-09-21T07:06:18;9.90;99.90
25188;DHT22;13141;50.414;8.050;2022-09-21T07:08:45;10.00;99.90
25188;DHT22;13141;50.414;8.050;2022-09-21T07:11:12;10.00;99.90
25188;DHT22;13141;50.414;8.050;2022-09-21T07:13:39;10.00;99.90
25188;DHT22;13141;50.414;8.050;2022-09-21T07:16:05;10.00;99.90
25188;DHT22;13141;50.414;8.050;2022-09-21T07:18:35;10.10;99.90
25188;DHT22;13141;50.414;8.050;2022-09-21T07:21:04;10.10;99.90
25188;DHT22;13141;50.414;8.050;2022-09-21T07:23:30;10.10;99.90
25188;DHT22;13141;50.414;8.050;2022-09-21T07:26:03;10.00;99.90
25188;DHT22;13141;50.414;8.050;2022-09-21T07:28:29;9.70;99.90
25188;DHT22;13141;50.414;8.050;2022-09-21T07:30:55;10.10;99.90
25188;DHT22;13141;50.414;8.050;2022-09-21T07:33:22;10.10;99.90
25188;DHT22;13141;50.414;8.050;2022-09-21T07:35:52;10.20;99.90
25188;DHT22;13141;50.414;8.050;2022-09-21T07:38:18;10.20;99.90
25188;DHT22;13141;50.414;8.050;2022-09-21T07:40:44;10.20;99.90
25188;DHT22;13141;50.414;8.050;2022-09-21T07:43:09;10.20;99.90
25188;DHT22;13141;50.414;8.050;2022-09-21T07:45:35;10.30;99.90
25188;DHT22;13141;50.414;8.050;2022-09-21T07:48:02;10.30;99.90
25188;DHT22;13141;50.414;8.050;2022-09-21T07:50:28;10.30;99.90
25188;DHT22;13141;50.414;8.050;2022-09-21T07:52:53;10.40;99.90
25188;DHT22;13141;50.414;8.050;2022-09-21T07:55:19;10.40;99.90
25188;DHT22;13141;50.414;8.050;2022-09-21T07:57:44;10.50;99.90
25188;DHT22;13141;50.414;8.050;2022-09-21T08:00:45;10.50;99.90
25188;DHT22;13141;50.414;8.050;2022-09-21T08:03:10;10.50;99.90
25188;DHT22;13141;50.414;8.050;2022-09-21T08:05:36;10.50;99.90
25188;DHT22;13141;50.414;8.050;2022-09-21T08:08:02;10.50;99.90
25188;DHT22;13141;50.414;8.050;2022-09-21T08:10:27;10.60;99.90
25188;DHT22;13141;50.414;8.050;2022-09-21T08:12:55;10.70;99.90
25188;DHT22;13141;50.414;8.050;2022-09-21T08:15:21;10.70;99.90
25188;DHT22;13141;50.414;8.050;2022-09-21T08:17:46;10.70;99.90
25188;DHT22;13141;50.414;8.050;2022-09-21T08:20:13;10.80;99.90
25188;DHT22;13141;50.414;8.050;2022-09-21T08:22:39;10.80;99.90
25188;DHT22;13141;50.414;8.050;2022-09-21T08:25:05;10.80;99.90
25188;DHT22;13141;50.414;8.050;2022-09-21T08:27:31;10.90;99.90
25188;DHT22;13141;50.414;8.050;2022-09-21T08:29:56;10.90;99.90
25188;DHT22;13141;50.414;8.050;2022-09-21T08:32:22;11.00;99.90
25188;DHT22;13141;50.414;8.050;2022-09-21T08:34:47;10.80;99.90
25188;DHT22;13141;50.414;8.050;2022-09-21T08:37:14;10.80;99.90
25188;DHT22;13141;50.414;8.050;2022-09-21T08:39:40;10.80;99.90
25188;DHT22;13141;50.414;8.050;2022-09-21T08:45:00;11.00;99.90
25188;DHT22;13141;50.414;8.050;2022-09-21T08:47:37;11.10;99.90
25188;DHT22;13141;50.414;8.050;2022-09-21T08:50:33;11.20;99.90
25188;DHT22;13141;50.414;8.050;2022-09-21T08:53:12;11.30;99.90
25188;DHT22;13141;50.414;8.050;2022-09-21T08:55:38;11.40;99.90
25188;DHT22;13141;50.414;8.050;2022-09-21T08:58:14;11.40;99.90
25188;DHT22;13141;50.414;8.050;2022-09-21T09:00:42;11.40;99.90
25188;DHT22;13141;50.414;8.050;2022-09-21T09:17:19;11.40;99.90
25188;DHT22;13141;50.414;8.050;2022-09-21T09:19:59;11.60;99.90
25188;DHT22;13141;50.414;8.050;2022-09-21T09:22:35;11.70;99.90
25188;DHT22;13141;50.414;8.050;2022-09-21T09:25:06;11.90;99.90
25188;DHT22;13141;50.414;8.050;2022-09-21T09:27:41;11.80;99.90
25188;DHT22;13141;50.414;8.050;2022-09-21T09:30:28;11.90;99.90
25188;DHT22;13141;50.414;8.050;2022-09-21T09:33:02;12.20;99.90
25188;DHT22;13141;50.414;8.050;2022-09-21T09:35:47;12.30;99.90
25188;DHT22;13141;50.414;8.050;2022-09-21T09:38:36;12.40;99.90
25188;DHT22;13141;50.414;8.050;2022-09-21T09:41:25;12.60;99.90
25188;DHT22;13141;50.414;8.050;2022-09-21T09:44:09;12.90;99.90
25188;DHT22;13141;50.414;8.050;2022-09-21T09:52:04;13.60;99.90
25188;DHT22;13141;50.414;8.050;2022-09-21T09:54:33;14.00;99.90
25188;DHT22;13141;50.414;8.050;2022-09-21T09:57:02;14.40;99.90
25188;DHT22;13141;50.414;8.050;2022-09-21T09:59:51;14.80;99.90
25188;DHT22;13141;50.414;8.050;2022-09-21T10:02:22;15.20;99.90
25188;DHT22;13141;50.414;8.050;2022-09-21T10:04:58;15.50;99.90
25188;DHT22;13141;50.414;8.050;2022-09-21T10:07:39;16.00;99.90
25188;DHT22;13141;50.414;8.050;2022-09-21T10:10:37;16.40;99.90
25188;DHT22;13141;50.414;8.050;2022-09-21T10:13:27;16.80;99.90
25188;DHT22;13141;50.414;8.050;2022-09-21T10:15:57;17.20;99.90
25188;DHT22;13141;50.414;8.050;2022-09-21T10:18:36;17.50;99.90
25188;DHT22;13141;50.414;8.050;2022-09-21T10:21:21;17.80;99.90
25188;DHT22;13141;50.414;8.050;2022-09-21T10:23:57;18.10;99.90
25188;DHT22;13141;50.414;8.050;2022-09-21T10:29:29;18.80;99.90
25188;DHT22;13141;50.414;8.050;2022-09-21T10:32:03;19.00;99.90
25188;DHT22;13141;50.414;8.050;2022-09-21T10:34:33;19.20;99.90
25188;DHT22;13141;50.414;8.050;2022-09-21T10:37:01;19.10;99.90
25188;DHT22;13141;50.414;8.050;2022-09-21T10:39:46;19.30;99.90
25188;DHT22;13141;50.414;8.050;2022-09-21T10:42:14;19.70;99.90
25188;DHT22;13141;50.414;8.050;2022-09-21T10:44:41;19.70;99.90
25188;DHT22;13141;50.414;8.050;2022-09-21T10:50:27;19.90;99.90
25188;DHT22;13141;50.414;8.050;2022-09-21T10:52:41;20.20;99.90
25188;DHT22;13141;50.414;8.050;2022-09-21T10:55:16;20.70;99.90
25188;DHT22;13141;50.414;8.050;2022-09-21T10:57:43;21.00;99.70
25188;DHT22;13141;50.414;8.050;2022-09-21T11:02:54;21.80;98.90
25188;DHT22;13141;50.414;8.050;2022-09-21T11:05:26;22.00;98.40
25188;DHT22;13141;50.414;8.050;2022-09-21T11:08:23;22.20;95.60
25188;DHT22;13141;50.414;8.050;2022-09-21T11:11:02;22.40;96.40
25188;DHT22;13141;50.414;8.050;2022-09-21T11:16:15;23.20;94.30
25188;DHT22;13141;50.414;8.050;2022-09-21T11:21:57;23.00;92.70
25188;DHT22;13141;50.414;8.050;2022-09-21T11:24:35;23.60;94.30
25188;DHT22;13141;50.414;8.050;2022-09-21T11:27:21;23.90;93.20
25188;DHT22;13141;50.414;8.050;2022-09-21T11:38:59;24.20;93.00
25188;DHT22;13141;50.414;8.050;2022-09-21T11:52:57;25.40;84.40
25188;DHT22;13141;50.414;8.050;2022-09-21T12:04:22;24.70;79.60
25188;DHT22;13141;50.414;8.050;2022-09-21T12:12:50;25.80;81.20
25188;DHT22;13141;50.414;8.050;2022-09-21T12:15:20;26.10;77.00
25188;DHT22;13141;50.414;8.050;2022-09-21T12:18:15;26.20;77.90
25188;DHT22;13141;50.414;8.050;2022-09-21T12:23:47;26.70;72.40
25188;DHT22;13141;50.414;8.050;2022-09-21T12:26:21;27.00;77.50
25188;DHT22;13141;50.414;8.050;2022-09-21T12:28:55;27.20;75.60
25188;DHT22;13141;50.414;8.050;2022-09-21T12:31:43;27.10;72.60
25188;DHT22;13141;50.414;8.050;2022-09-21T12:34:20;27.40;73.60
25188;DHT22;13141;50.414;8.050;2022-09-21T12:37:14;27.60;68.90
25188;DHT22;13141;50.414;8.050;2022-09-21T12:42:53;26.90;72.80
25188;DHT22;13141;50.414;8.050;2022-09-21T12:45:44;27.30;71.20
25188;DHT22;13141;50.414;8.050;2022-09-21T12:48:34;27.60;68.90
25188;DHT22;13141;50.414;8.050;2022-09-21T12:53:40;27.90;70.50
25188;DHT22;13141;50.414;8.050;2022-09-21T13:04:38;27.10;63.40
25188;DHT22;13141;50.414;8.050;2022-09-21T13:10:16;26.00;64.10
25188;DHT22;13141;50.414;8.050;2022-09-21T13:12:43;26.20;63.20
25188;DHT22;13141;50.414;8.050;2022-09-21T13:15:22;26.80;65.50
25188;DHT22;13141;50.414;8.050;2022-09-21T13:18:00;27.20;61.00
25188;DHT22;13141;50.414;8.050;2022-09-21T13:20:26;27.40;58.70
25188;DHT22;13141;50.414;8.050;2022-09-21T13:22:58;27.70;63.20
25188;DHT22;13141;50.414;8.050;2022-09-21T13:25:29;28.00;62.20
25188;DHT22;13141;50.414;8.050;2022-09-21T13:30:44;28.50;60.00
25188;DHT22;13141;50.414;8.050;2022-09-21T13:38:41;27.30;57.10
25188;DHT22;13141;50.414;8.050;2022-09-21T13:51:57;28.10;58.10
25188;DHT22;13141;50.414;8.050;2022-09-21T13:54:33;28.40;58.20
25188;DHT22;13141;50.414;8.050;2022-09-21T13:59:48;29.00;55.40
25188;DHT22;13141;50.414;8.050;2022-09-21T14:02:31;29.10;54.50
25188;DHT22;13141;50.414;8.050;2022-09-21T14:05:03;29.20;53.40
25188;DHT22;13141;50.414;8.050;2022-09-21T14:07:31;29.20;51.60
25188;DHT22;13141;50.414;8.050;2022-09-21T14:10:02;29.20;52.80
25188;DHT22;13141;50.414;8.050;2022-09-21T14:12:33;29.50;51.50
25188;DHT22;13141;50.414;8.050;2022-09-21T14:17:43;29.40;52.20
25188;DHT22;13141;50.414;8.050;2022-09-21T14:20:28;29.30;53.70
25188;DHT22;13141;50.414;8.050;2022-09-21T14:25:52;28.50;51.50
25188;DHT22;13141;50.414;8.050;2022-09-21T14:28:36;28.60;53.20
25188;DHT22;13141;50.414;8.050;2022-09-21T14:31:33;28.80;48.00
25188;DHT22;13141;50.414;8.050;2022-09-21T14:34:02;28.80;47.20
25188;DHT22;13141;50.414;8.050;2022-09-21T14:36:36;28.90;49.70
25188;DHT22;13141;50.414;8.050;2022-09-21T14:39:14;29.10;49.70
25188;DHT22;13141;50.414;8.050;2022-09-21T14:41:42;29.30;49.90
25188;DHT22;13141;50.414;8.050;2022-09-21T14:44:23;29.40;50.60
25188;DHT22;13141;50.414;8.050;2022-09-21T15:07:06;28.70;45.40
25188;DHT22;13141;50.414;8.050;2022-09-21T15:12:59;27.30;46.70
25188;DHT22;13141;50.414;8.050;2022-09-21T15:15:39;27.10;48.90
25188;DHT22;13141;50.414;8.050;2022-09-21T15:18:18;27.40;48.30
25188;DHT22;13141;50.414;8.050;2022-09-21T15:20:54;27.60;47.40
25188;DHT22;13141;50.414;8.050;2022-09-21T15:23:24;27.40;47.40
25188;DHT22;13141;50.414;8.050;2022-09-21T15:26:03;27.10;48.50
25188;DHT22;13141;50.414;8.050;2022-09-21T15:28:35;27.20;48.70
25188;DHT22;13141;50.414;8.050;2022-09-21T15:31:03;27.30;48.80
25188;DHT22;13141;50.414;8.050;2022-09-21T15:33:30;27.50;50.80
25188;DHT22;13141;50.414;8.050;2022-09-21T15:35:59;27.60;49.90
25188;DHT22;13141;50.414;8.050;2022-09-21T15:38:29;27.70;46.30
25188;DHT22;13141;50.414;8.050;2022-09-21T15:40:55;27.40;46.30
25188;DHT22;13141;50.414;8.050;2022-09-21T15:43:21;27.20;47.40
25188;DHT22;13141;50.414;8.050;2022-09-21T15:46:01;27.10;49.70
25188;DHT22;13141;50.414;8.050;2022-09-21T15:48:33;27.10;48.30
25188;DHT22;13141;50.414;8.050;2022-09-21T15:51:19;27.10;47.40
25188;DHT22;13141;50.414;8.050;2022-09-21T15:53:51;27.10;47.30
25188;DHT22;13141;50.414;8.050;2022-09-21T15:56:20;27.10;49.40
25188;DHT22;13141;50.414;8.050;2022-09-21T15:58:47;27.10;49.40
25188;DHT22;13141;50.414;8.050;2022-09-21T16:01:19;27.00;48.40
25188;DHT22;13141;50.414;8.050;2022-09-21T16:03:46;27.10;49.40
25188;DHT22;13141;50.414;8.050;2022-09-21T16:06:36;27.10;48.70
25188;DHT22;13141;50.414;8.050;2022-09-21T16:11:51;26.90;47.10
25188;DHT22;13141;50.414;8.050;2022-09-21T16:14:18;26.80;50.50
25188;DHT22;13141;50.414;8.050;2022-09-21T16:19:43;26.70;49.90
25188;DHT22;13141;50.414;8.050;2022-09-21T16:22:14;26.70;50.40
25188;DHT22;13141;50.414;8.050;2022-09-21T16:24:48;26.80;50.30
25188;DHT22;13141;50.414;8.050;2022-09-21T16:27:16;26.60;47.20
25188;DHT22;13141;50.414;8.050;2022-09-21T16:29:44;26.10;49.00
25188;DHT22;13141;50.414;8.050;2022-09-21T16:34:46;25.70;50.00
25188;DHT22;13141;50.414;8.050;2022-09-21T16:42:16;25.30;52.90
25188;DHT22;13141;50.414;8.050;2022-09-21T16:44:42;25.20;53.00
25188;DHT22;13141;50.414;8.050;2022-09-21T16:47:14;25.00;51.70
25188;DHT22;13141;50.414;8.050;2022-09-21T16:49:40;24.80;51.30
25188;DHT22;13141;50.414;8.050;2022-09-21T16:52:06;24.60;51.50
25188;DHT22;13141;50.414;8.050;2022-09-21T16:54:32;24.50;53.40
25188;DHT22;13141;50.414;8.050;2022-09-21T16:57:00;24.50;53.60
25188;DHT22;13141;50.414;8.050;2022-09-21T16:59:27;24.00;52.60
25188;DHT22;13141;50.414;8.050;2022-09-21T17:01:56;23.80;53.80
25188;DHT22;13141;50.414;8.050;2022-09-21T17:04:26;23.70;54.50
25188;DHT22;13141;50.414;8.050;2022-09-21T17:06:53;23.70;54.70
25188;DHT22;13141;50.414;8.050;2022-09-21T17:09:21;23.60;55.00
25188;DHT22;13141;50.414;8.050;2022-09-21T17:11:48;23.40;54.60
25188;DHT22;13141;50.414;8.050;2022-09-21T17:14:16;23.10;55.30
25188;DHT22;13141;50.414;8.050;2022-09-21T17:16:44;22.80;56.00
25188;DHT22;13141;50.414;8.050;2022-09-21T17:19:10;22.70;56.10
25188;DHT22;13141;50.414;8.050;2022-09-21T17:21:35;22.50;56.40
25188;DHT22;13141;50.414;8.050;2022-09-21T17:24:01;22.40;56.70
25188;DHT22;13141;50.414;8.050;2022-09-21T17:26:26;22.20;57.50
25188;DHT22;13141;50.414;8.050;2022-09-21T17:28:52;22.10;57.90
25188;DHT22;13141;50.414;8.050;2022-09-21T17:31:19;22.00;58.60
25188;DHT22;13141;50.414;8.050;2022-09-21T17:33:47;21.90;60.00
25188;DHT22;13141;50.414;8.050;2022-09-21T17:36:15;21.60;61.00
25188;DHT22;13141;50.414;8.050;2022-09-21T17:38:42;21.40;60.90
25188;DHT22;13141;50.414;8.050;2022-09-21T17:41:23;21.30;62.80
25188;DHT22;13141;50.414;8.050;2022-09-21T17:44:08;21.10;64.40
25188;DHT22;13141;50.414;8.050;2022-09-21T17:49:35;20.90;65.60
25188;DHT22;13141;50.414;8.050;2022-09-21T17:52:02;20.70;66.70
25188;DHT22;13141;50.414;8.050;2022-09-21T17:54:46;20.60;67.00
25188;DHT22;13141;50.414;8.050;2022-09-21T17:57:19;20.40;68.50
25188;DHT22;13141;50.414;8.050;2022-09-21T17:59:58;20.20;70.20
25188;DHT22;13141;50.414;8.050;2022-09-21T18:02:26;20.10;71.50
25188;DHT22;13141;50.414;8.050;2022-09-21T18:04:58;19.90;72.00
25188;DHT22;13141;50.414;8.050;2022-09-21T18:07:24;19.70;73.40
25188;DHT22;13141;50.414;8.050;2022-09-21T18:09:50;19.50;73.80
25188;DHT22;13141;50.414;8.050;2022-09-21T18:12:45;19.40;75.30
25188;DHT22;13141;50.414;8.050;2022-09-21T18:18:11;19.10;78.20
25188;DHT22;13141;50.414;8.050;2022-09-21T18:23:21;18.80;79.30
25188;DHT22;13141;50.414;8.050;2022-09-21T18:25:53;18.60;79.60
25188;DHT22;13141;50.414;8.050;2022-09-21T18:28:30;18.40;82.10
25188;DHT22;13141;50.414;8.050;2022-09-21T18:31:22;18.20;84.00
25188;DHT22;13141;50.414;8.050;2022-09-21T18:39:57;17.90;87.00
25188;DHT22;13141;50.414;8.050;2022-09-21T18:42:58;17.80;86.60
25188;DHT22;13141;50.414;8.050;2022-09-21T18:45:35;17.70;88.40
25188;DHT22;13141;50.414;8.050;2022-09-21T18:50:58;17.50;90.60
25188;DHT22;13141;50.414;8.050;2022-09-21T18:53:52;17.40;90.90
25188;DHT22;13141;50.414;8.050;2022-09-21T18:56:21;17.30;91.70
25188;DHT22;13141;50.414;8.050;2022-09-21T18:58:47;17.20;92.00
25188;DHT22;13141;50.414;8.050;2022-09-21T19:01:14;17.00;92.40
25188;DHT22;13141;50.414;8.050;2022-09-21T19:03:41;17.00;92.60
25188;DHT22;13141;50.414;8.050;2022-09-21T19:09:20;16.90;93.50
25188;DHT22;13141;50.414;8.050;2022-09-21T19:12:02;16.80;93.90
25188;DHT22;13141;50.414;8.050;2022-09-21T19:17:34;16.50;94.40
25188;DHT22;13141;50.414;8.050;2022-09-21T19:23:17;16.30;95.00
25188;DHT22;13141;50.414;8.050;2022-09-21T19:25:46;16.30;95.60
25188;DHT22;13141;50.414;8.050;2022-09-21T19:31:03;16.00;95.70
25188;DHT22;13141;50.414;8.050;2022-09-21T19:33:32;16.00;96.30
25188;DHT22;13141;50.414;8.050;2022-09-21T19:35:58;15.90;95.60
25188;DHT22;13141;50.414;8.050;2022-09-21T19:38:28;15.80;96.30
25188;DHT22;13141;50.414;8.050;2022-09-21T19:40:59;15.70;95.90
25188;DHT22;13141;50.414;8.050;2022-09-21T19:46:27;15.30;97.90
25188;DHT22;13141;50.414;8.050;2022-09-21T19:49:04;15.20;98.00